Time;durP1;ratioP1;P1;durP2;ratioP2;P2;SDS_P1;SDS_P2;PMS_P1;PMS_P2;Temp;Humidity;BMP_temperature;BMP_pressure;BME280_temperature;BME280_humidity;BME280_pressure;Samples;Min_cycle;Max_cycle;Signal;HPM_P1;HPM_P2
2021/10/01 00:01:54;;;;;;;2.85;1.77;;;;;;;;;;5041221;28;20025;-68
2021/10/01 00:04:24;;;;;;;7.50;2.60;;;;;;;;;;5051350;28;20033;-68
2021/10/01 00:06:52;;;;;;;2.50;1.90;;;;;;;;;;5046540;28;20631;-68
2021/10/01 00:09:19;;;;;;;4.18;1.58;;;;;;;;;;5041405;28;20530;-69
2021/10/01 00:11:53;;;;;;;4.30;1.58;;;;;;;;;;5052600;28;20112;-69
2021/10/01 00:14:21;;;;;;;4.55;1.30;;;;;;;;;;5049744;28;20362;-67
2021/10/01 00:16:49;;;;;;;6.57;1.45;;;;;;;;;;5049130;28;20029;-67
2021/10/01 00:19:16;;;;;;;3.45;0.85;;;;;;;;;;5044449;28;20032;-67
2021/10/01 00:21:44;;;;;;;4.38;0.90;;;;;;;;;;5038206;28;20151;-68
2021/10/01 00:24:11;;;;;;;2.88;0.77;;;;;;;;;;5041356;28;20390;-68
2021/10/01 00:26:40;;;;;;;1.45;0.57;;;;;;;;;;5044279;28;20029;-68
2021/10/01 00:29:08;;;;;;;1.40;0.63;;;;;;;;;;5051257;28;20025;-68
2021/10/01 00:31:35;;;;;;;1.75;0.70;;;;;;;;;;5039057;28;20052;-69
2021/10/01 00:34:03;;;;;;;3.72;0.70;;;;;;;;;;5048071;28;20040;-69
2021/10/01 00:36:31;;;;;;;3.47;1.00;;;;;;;;;;5044410;28;20039;-69
2021/10/01 00:38:59;;;;;;;3.80;0.88;;;;;;;;;;5052779;28;20072;-69
2021/10/01 00:41:30;;;;;;;3.08;0.70;;;;;;;;;;5053722;28;20102;-69
2021/10/01 00:43:58;;;;;;;3.83;0.90;;;;;;;;;;5052121;28;20039;-69
2021/10/01 00:46:26;;;;;;;3.00;0.90;;;;;;;;;;5050018;28;20093;-69
2021/10/01 00:48:53;;;;;;;2.33;0.75;;;;;;;;;;5050343;28;20425;-68
2021/10/01 00:51:22;;;;;;;1.92;0.50;;;;;;;;;;5052868;28;20017;-68
2021/10/01 00:53:49;;;;;;;2.38;0.60;;;;;;;;;;5049953;28;20515;-68
2021/10/01 00:56:17;;;;;;;2.03;0.60;;;;;;;;;;5033557;28;20041;-68
2021/10/01 00:58:44;;;;;;;3.38;0.75;;;;;;;;;;5048685;28;20037;-69
2021/10/01 01:01:11;;;;;;;2.15;0.70;;;;;;;;;;5043034;28;20071;-68
2021/10/01 01:03:44;;;;;;;1.40;0.60;;;;;;;;;;5039759;28;20021;-68
2021/10/01 01:06:18;;;;;;;2.97;1.08;;;;;;;;;;5044414;28;20036;-68
2021/10/01 01:09:01;;;;;;;2.25;0.70;;;;;;;;;;5060225;28;20521;-68
2021/10/01 01:11:36;;;;;;;2.50;0.50;;;;;;;;;;5031371;28;20053;-68
2021/10/01 01:14:15;;;;;;;2.78;0.95;;;;;;;;;;5047686;28;20036;-68
2021/10/01 01:16:44;;;;;;;2.13;0.82;;;;;;;;;;5046764;28;20029;-67
2021/10/01 01:19:13;;;;;;;2.42;1.10;;;;;;;;;;5032163;28;20034;-67
2021/10/01 01:21:57;;;;;;;3.08;1.10;;;;;;;;;;5032162;28;20448;-67
2021/10/01 01:24:27;;;;;;;1.80;0.80;;;;;;;;;;5038865;28;20040;-67
2021/10/01 01:26:58;;;;;;;1.10;0.63;;;;;;;;;;5035337;28;20520;-68
2021/10/01 01:29:30;;;;;;;1.88;0.63;;;;;;;;;;5044691;28;20115;-68
2021/10/01 01:31:57;;;;;;;2.00;0.60;;;;;;;;;;5049061;28;20028;-69
2021/10/01 01:34:28;;;;;;;3.20;0.70;;;;;;;;;;5041413;28;20010;-68
2021/10/01 01:37:01;;;;;;;1.83;0.80;;;;;;;;;;5046987;28;20128;-69
2021/10/01 01:39:29;;;;;;;2.55;0.70;;;;;;;;;;5042700;28;20494;-70
2021/10/01 01:41:57;;;;;;;4.93;1.13;;;;;;;;;;5047315;28;20055;-69
2021/10/01 01:44:25;;;;;;;6.03;0.95;;;;;;;;;;5041974;28;20037;-67
2021/10/01 01:46:53;;;;;;;2.08;0.60;;;;;;;;;;5041010;28;20044;-68
2021/10/01 01:49:21;;;;;;;2.65;0.60;;;;;;;;;;5044664;28;20048;-68
2021/10/01 01:51:48;;;;;;;3.08;0.57;;;;;;;;;;5042851;28;20478;-70
2021/10/01 01:54:17;;;;;;;2.30;0.60;;;;;;;;;;5054930;28;20017;-68
2021/10/01 01:56:45;;;;;;;3.15;0.60;;;;;;;;;;5040862;28;20032;-69
2021/10/01 01:59:13;;;;;;;2.67;1.38;;;;;;;;;;5050806;28;20358;-69
2021/10/01 02:01:42;;;;;;;4.18;1.05;;;;;;;;;;5039517;28;20029;-69
2021/10/01 02:04:10;;;;;;;2.78;0.93;;;;;;;;;;5042666;28;20025;-69
2021/10/01 02:06:38;;;;;;;3.10;0.77;;;;;;;;;;5032019;28;20120;-72
2021/10/01 02:09:06;;;;;;;4.13;1.30;;;;;;;;;;5060283;28;20038;-69
2021/10/01 02:11:33;;;;;;;1.58;0.40;;;;;;;;;;5032057;28;20025;-69
2021/10/01 02:14:01;;;;;;;6.78;1.90;;;;;;;;;;5047659;28;20025;-71
2021/10/01 02:16:29;;;;;;;6.05;2.90;;;;;;;;;;5059388;28;20470;-69
2021/10/01 02:18:58;;;;;;;4.15;1.00;;;;;;;;;;5049482;28;20112;-69
2021/10/01 02:21:26;;;;;;;4.18;1.08;;;;;;;;;;5048349;28;20569;-68
2021/10/01 02:23:53;;;;;;;5.05;1.52;;;;;;;;;;5047441;28;20037;-67
2021/10/01 02:26:37;;;;;;;3.03;1.00;;;;;;;;;;5036791;28;20037;-68
2021/10/01 02:29:11;;;;;;;5.82;1.15;;;;;;;;;;5039742;28;20032;-68
2021/10/01 02:31:49;;;;;;;6.82;1.17;;;;;;;;;;5035030;28;20040;-69
2021/10/01 02:34:18;;;;;;;10.57;2.05;;;;;;;;;;5047173;28;20025;-68
2021/10/01 02:36:45;;;;;;;4.55;1.52;;;;;;;;;;5036447;28;20083;-69
2021/10/01 02:39:12;;;;;;;5.10;1.52;;;;;;;;;;5050392;28;20044;-69
2021/10/01 02:41:39;;;;;;;3.53;1.17;;;;;;;;;;5055954;28;20083;-69
2021/10/01 02:44:07;;;;;;;3.50;1.08;;;;;;;;;;5050203;28;20557;-69
2021/10/01 02:46:34;;;;;;;3.15;0.85;;;;;;;;;;5031499;28;20024;-68
2021/10/01 02:49:01;;;;;;;2.00;1.00;;;;;;;;;;5042878;28;20108;-70
2021/10/01 02:51:30;;;;;;;3.97;1.10;;;;;;;;;;5052105;28;20061;-69
2021/10/01 02:54:03;;;;;;;4.80;0.90;;;;;;;;;;5049614;28;20085;-69
2021/10/01 02:56:36;;;;;;;3.92;1.40;;;;;;;;;;5048420;28;20037;-69
2021/10/01 02:59:04;;;;;;;4.10;1.13;;;;;;;;;;5049667;28;20095;-69
2021/10/01 03:01:32;;;;;;;5.90;1.40;;;;;;;;;;5036389;28;20021;-69
2021/10/01 03:04:10;;;;;;;4.00;1.20;;;;;;;;;;5039261;28;20536;-69
2021/10/01 03:06:40;;;;;;;4.22;1.40;;;;;;;;;;5038488;28;20044;-69
2021/10/01 03:09:08;;;;;;;5.22;1.70;;;;;;;;;;5038504;28;20013;-71
2021/10/01 03:11:36;;;;;;;30.15;10.43;;;;;;;;;;5036595;28;20036;-72
2021/10/01 03:14:04;;;;;;;9.73;2.78;;;;;;;;;;5047266;28;20018;-70
2021/10/01 03:16:34;;;;;;;6.53;1.85;;;;;;;;;;5046163;28;20122;-70
2021/10/01 03:19:01;;;;;;;6.35;1.88;;;;;;;;;;5048824;28;20490;-70
2021/10/01 03:21:28;;;;;;;6.10;1.65;;;;;;;;;;5051070;28;20032;-71
2021/10/01 03:23:56;;;;;;;4.78;1.38;;;;;;;;;;5052370;28;20075;-71
2021/10/01 03:26:25;;;;;;;5.05;1.63;;;;;;;;;;5048267;28;20036;-71
2021/10/01 03:28:52;;;;;;;5.50;1.80;;;;;;;;;;5050648;28;20045;-71
2021/10/01 03:31:20;;;;;;;3.10;1.08;;;;;;;;;;5048233;28;20489;-72
2021/10/01 03:33:47;;;;;;;4.97;1.48;;;;;;;;;;5049188;28;20033;-71
2021/10/01 03:36:14;;;;;;;4.32;1.17;;;;;;;;;;5044803;28;20457;-72
2021/10/01 03:38:41;;;;;;;3.97;1.35;;;;;;;;;;5050551;28;20095;-70
2021/10/01 03:41:09;;;;;;;5.22;2.22;;;;;;;;;;5041974;28;20052;-70
2021/10/01 03:43:36;;;;;;;3.20;1.10;;;;;;;;;;5042789;28;20474;-69
2021/10/01 03:46:03;;;;;;;6.28;1.38;;;;;;;;;;5041761;28;20445;-70
2021/10/01 03:48:30;;;;;;;4.30;1.15;;;;;;;;;;5044518;28;20091;-71
2021/10/01 03:50:57;;;;;;;4.22;1.13;;;;;;;;;;5045103;28;20053;-70
2021/10/01 03:53:24;;;;;;;3.47;1.20;;;;;;;;;;5044219;28;20021;-72
2021/10/01 03:55:51;;;;;;;4.13;1.40;;;;;;;;;;5035562;28;20029;-69
2021/10/01 03:58:18;;;;;;;3.63;1.10;;;;;;;;;;5040128;28;20359;-71
2021/10/01 04:00:46;;;;;;;3.72;1.15;;;;;;;;;;5041966;28;20021;-69
2021/10/01 04:03:13;;;;;;;6.85;1.70;;;;;;;;;;5047117;28;20052;-69
2021/10/01 04:05:41;;;;;;;3.53;1.27;;;;;;;;;;5044768;28;20438;-69
2021/10/01 04:08:12;;;;;;;3.20;1.02;;;;;;;;;;5036273;28;20568;-71
2021/10/01 04:10:39;;;;;;;3.70;1.15;;;;;;;;;;5046174;28;20021;-69
2021/10/01 04:13:10;;;;;;;3.22;1.55;;;;;;;;;;5047988;28;20040;-70
2021/10/01 04:15:37;;;;;;;6.00;1.05;;;;;;;;;;5051856;28;20041;-70
2021/10/01 04:18:04;;;;;;;4.07;1.40;;;;;;;;;;5049081;28;20025;-70
2021/10/01 04:20:34;;;;;;;9.73;1.00;;;;;;;;;;5051809;28;20025;-68
2021/10/01 04:23:01;;;;;;;4.72;0.90;;;;;;;;;;5051473;28;20390;-67
2021/10/01 04:25:30;;;;;;;3.38;1.00;;;;;;;;;;5054112;28;20025;-69
2021/10/01 04:27:57;;;;;;;2.92;1.17;;;;;;;;;;5049371;28;20025;-69
2021/10/01 04:30:24;;;;;;;3.55;0.80;;;;;;;;;;5040703;28;20014;-69
2021/10/01 04:33:03;;;;;;;3.88;1.13;;;;;;;;;;5045536;28;20021;-70
2021/10/01 04:35:30;;;;;;;2.65;1.00;;;;;;;;;;5045210;28;20021;-69
2021/10/01 04:37:57;;;;;;;5.40;1.00;;;;;;;;;;5043244;28;20469;-70
2021/10/01 04:40:24;;;;;;;4.57;1.15;;;;;;;;;;5040213;28;20045;-69
2021/10/01 04:42:51;;;;;;;2.40;1.15;;;;;;;;;;5043760;28;20029;-69
2021/10/01 04:45:18;;;;;;;4.00;1.27;;;;;;;;;;5051225;28;20031;-68
2021/10/01 04:47:45;;;;;;;6.20;1.98;;;;;;;;;;5041968;28;20043;-69
2021/10/01 04:50:18;;;;;;;5.80;1.80;;;;;;;;;;5042189;28;20040;-68
2021/10/01 04:52:45;;;;;;;6.93;2.20;;;;;;;;;;5038085;28;20508;-69
2021/10/01 04:55:12;;;;;;;4.53;1.92;;;;;;;;;;5043820;28;20484;-69
2021/10/01 04:57:39;;;;;;;6.78;2.30;;;;;;;;;;5038058;28;20017;-68
2021/10/01 05:00:07;;;;;;;7.32;2.13;;;;;;;;;;5043424;28;20017;-68
2021/10/01 05:02:34;;;;;;;13.07;3.40;;;;;;;;;;5046487;28;20021;-68
2021/10/01 05:05:01;;;;;;;5.13;1.95;;;;;;;;;;5036542;28;20378;-68
2021/10/01 05:07:28;;;;;;;7.50;1.88;;;;;;;;;;5040774;28;20398;-69
2021/10/01 05:09:55;;;;;;;5.35;1.67;;;;;;;;;;5040969;28;20052;-68
2021/10/01 05:12:22;;;;;;;5.88;1.92;;;;;;;;;;5038334;28;20108;-67
2021/10/01 05:14:49;;;;;;;4.03;1.48;;;;;;;;;;5038213;28;20124;-69
2021/10/01 05:17:16;;;;;;;8.02;1.85;;;;;;;;;;5040951;28;20405;-68
2021/10/01 05:19:45;;;;;;;6.35;1.77;;;;;;;;;;5040937;28;20166;-68
2021/10/01 05:22:12;;;;;;;4.10;1.23;;;;;;;;;;5037090;28;20141;-69
2021/10/01 05:24:39;;;;;;;4.22;1.65;;;;;;;;;;5043640;28;20017;-69
2021/10/01 05:27:06;;;;;;;3.92;1.30;;;;;;;;;;5041329;28;20033;-69
2021/10/01 05:29:33;;;;;;;4.85;1.02;;;;;;;;;;5037280;28;20490;-69
2021/10/01 05:32:00;;;;;;;6.35;1.45;;;;;;;;;;5043108;28;20029;-69
2021/10/01 05:34:27;;;;;;;8.75;1.52;;;;;;;;;;5045158;28;20017;-70
2021/10/01 05:36:54;;;;;;;4.18;1.25;;;;;;;;;;5041839;28;20059;-68
2021/10/01 05:39:22;;;;;;;6.05;2.28;;;;;;;;;;5040973;28;20047;-66
2021/10/01 05:41:50;;;;;;;9.05;2.03;;;;;;;;;;5039946;28;20032;-69
2021/10/01 05:44:17;;;;;;;5.43;1.08;;;;;;;;;;5049626;28;20040;-68
2021/10/01 05:46:45;;;;;;;8.85;1.88;;;;;;;;;;5038143;28;20033;-69
2021/10/01 05:49:36;;;;;;;6.30;1.67;;;;;;;;;;5050797;28;20824;-69
2021/10/01 05:52:15;;;;;;;4.60;1.70;;;;;;;;;;5046423;28;20439;-69
2021/10/01 05:54:42;;;;;;;10.10;1.63;;;;;;;;;;5046981;28;20032;-69
2021/10/01 05:57:10;;;;;;;4.55;1.83;;;;;;;;;;5036678;28;20021;-70
2021/10/01 05:59:38;;;;;;;5.05;2.25;;;;;;;;;;5042726;28;20030;-69
2021/10/01 06:02:05;;;;;;;4.10;1.58;;;;;;;;;;5039400;28;20021;-70
2021/10/01 06:04:32;;;;;;;4.72;1.70;;;;;;;;;;5041837;28;20103;-70
2021/10/01 06:06:59;;;;;;;6.78;1.90;;;;;;;;;;5039927;28;20086;-70
2021/10/01 06:09:26;;;;;;;6.15;1.63;;;;;;;;;;5048576;28;20048;-70
2021/10/01 06:11:53;;;;;;;8.23;1.90;;;;;;;;;;5038032;28;20033;-70
2021/10/01 06:14:23;;;;;;;7.65;1.60;;;;;;;;;;5046336;28;20032;-69
2021/10/01 06:16:51;;;;;;;5.78;1.80;;;;;;;;;;5040960;28;20497;-69
2021/10/01 06:19:18;;;;;;;8.68;1.75;;;;;;;;;;5038241;28;20503;-70
2021/10/01 06:21:46;;;;;;;6.65;1.77;;;;;;;;;;5036186;28;20477;-69
2021/10/01 06:24:13;;;;;;;10.23;2.58;;;;;;;;;;5041298;28;20017;-72
2021/10/01 06:26:43;;;;;;;13.15;2.35;;;;;;;;;;5046043;28;20036;-70
2021/10/01 06:29:10;;;;;;;6.97;1.85;;;;;;;;;;5041801;28;20494;-72
2021/10/01 06:31:37;;;;;;;10.77;2.47;;;;;;;;;;5036805;28;21096;-69
2021/10/01 06:34:04;;;;;;;4.20;1.70;;;;;;;;;;5046488;28;20025;-71
2021/10/01 06:36:31;;;;;;;6.47;1.63;;;;;;;;;;5032173;28;20483;-70
2021/10/01 06:38:59;;;;;;;12.25;2.35;;;;;;;;;;5046921;28;20045;-71
2021/10/01 06:41:26;;;;;;;6.57;1.75;;;;;;;;;;5032235;28;20418;-71
2021/10/01 06:43:58;;;;;;;7.85;2.85;;;;;;;;;;5040114;28;20026;-71
2021/10/01 08:18:56;;;;;;;4.43;1.02;;;;;;;;;;5060822;28;20031;-67
2021/10/01 08:21:26;;;;;;;6.70;1.50;;;;;;;;;;5070514;28;20044;-67
2021/10/01 08:24:03;;;;;;;3.78;1.45;;;;;;;;;;5069499;28;20033;-67
2021/10/01 08:26:31;;;;;;;5.13;1.60;;;;;;;;;;5057718;28;20029;-66
2021/10/01 08:28:58;;;;;;;5.28;2.00;;;;;;;;;;5067917;28;20061;-67
2021/10/01 08:31:29;;;;;;;4.78;1.73;;;;;;;;;;5062512;28;20014;-67
2021/10/01 08:33:57;;;;;;;4.88;2.15;;;;;;;;;;5077786;28;20033;-67
2021/10/01 08:36:25;;;;;;;5.38;1.92;;;;;;;;;;5076131;28;20029;-67
2021/10/01 08:38:52;;;;;;;5.13;1.50;;;;;;;;;;5060365;28;20060;-67
2021/10/01 08:41:20;;;;;;;6.07;1.58;;;;;;;;;;5061849;28;20052;-67
2021/10/01 08:43:47;;;;;;;2.85;1.40;;;;;;;;;;5074753;28;20093;-67
2021/10/01 08:46:14;;;;;;;6.53;1.83;;;;;;;;;;5071712;28;20108;-67
2021/10/01 08:48:42;;;;;;;7.15;1.92;;;;;;;;;;5074388;28;20030;-67
2021/10/01 08:51:10;;;;;;;5.07;1.88;;;;;;;;;;5077463;28;20010;-67
2021/10/01 08:53:37;;;;;;;8.30;2.92;;;;;;;;;;5069691;28;20017;-67
2021/10/01 08:56:05;;;;;;;5.50;3.05;;;;;;;;;;5069380;28;20149;-67
2021/10/01 08:58:32;;;;;;;7.13;2.35;;;;;;;;;;5067727;28;20017;-67
2021/10/01 09:01:00;;;;;;;8.75;2.65;;;;;;;;;;5064194;28;20021;-67
2021/10/01 09:03:27;;;;;;;3.60;2.10;;;;;;;;;;5063749;28;20012;-67
2021/10/01 09:05:55;;;;;;;3.55;1.80;;;;;;;;;;5071595;28;20021;-67
2021/10/01 09:08:23;;;;;;;7.22;2.30;;;;;;;;;;5070215;28;20013;-66
2021/10/01 09:11:04;;;;;;;5.55;1.80;;;;;;;;;;5073474;28;20041;-66
2021/10/01 09:13:34;;;;;;;7.03;2.10;;;;;;;;;;5066742;28;20021;-66
2021/10/01 09:16:05;;;;;;;6.28;2.17;;;;;;;;;;5067287;28;20057;-66
2021/10/01 09:18:34;;;;;;;5.95;1.85;;;;;;;;;;5061103;28;20013;-67
2021/10/01 09:21:04;;;;;;;4.60;2.00;;;;;;;;;;5058488;28;20044;-67
2021/10/01 09:23:35;;;;;;;11.30;5.78;;;;;;;;;;5067259;28;20041;-66
2021/10/01 09:26:10;;;;;;;9.63;3.35;;;;;;;;;;5057697;28;20060;-67
2021/10/01 09:28:53;;;;;;;6.10;2.88;;;;;;;;;;5070737;28;20073;-67
2021/10/01 09:31:43;;;;;;;8.02;3.10;;;;;;;;;;5071492;28;20017;-67
2021/10/01 09:34:17;;;;;;;5.88;2.60;;;;;;;;;;5059342;28;20047;-66
2021/10/01 09:36:58;;;;;;;5.03;2.33;;;;;;;;;;5073665;28;20037;-66
2021/10/01 09:39:28;;;;;;;5.60;2.63;;;;;;;;;;5061821;28;20128;-67
2021/10/01 09:41:57;;;;;;;5.35;2.90;;;;;;;;;;5060787;28;20028;-66
2021/10/01 09:44:28;;;;;;;12.15;7.28;;;;;;;;;;5064596;28;20028;-66
2021/10/01 09:46:56;;;;;;;8.10;5.30;;;;;;;;;;5059873;28;20048;-66
2021/10/01 09:49:32;;;;;;;7.47;4.35;;;;;;;;;;5070915;28;20036;-66
2021/10/01 09:51:59;;;;;;;6.75;3.58;;;;;;;;;;5059593;28;20013;-66
2021/10/01 09:54:28;;;;;;;4.55;3.05;;;;;;;;;;5061219;28;20001;-66
2021/10/01 09:57:00;;;;;;;5.57;2.95;;;;;;;;;;5073244;28;20036;-66
2021/10/01 09:59:29;;;;;;;8.43;2.88;;;;;;;;;;5068031;28;20132;-66
2021/10/01 10:02:02;;;;;;;9.05;4.25;;;;;;;;;;5074331;28;20021;-66
2021/10/01 10:04:30;;;;;;;9.05;3.53;;;;;;;;;;5070514;28;20028;-67
2021/10/01 10:06:58;;;;;;;8.15;3.58;;;;;;;;;;5070023;28;20502;-66
2021/10/01 10:09:38;;;;;;;6.15;3.03;;;;;;;;;;5061616;28;20014;-66
2021/10/01 10:12:06;;;;;;;9.20;3.38;;;;;;;;;;5070210;28;20037;-66
2021/10/01 10:14:34;;;;;;;5.78;2.42;;;;;;;;;;5073171;28;20009;-67
2021/10/01 10:17:01;;;;;;;4.45;2.20;;;;;;;;;;5067835;28;20021;-66
2021/10/01 10:19:33;;;;;;;6.88;3.17;;;;;;;;;;5073725;28;20057;-66
2021/10/01 10:22:01;;;;;;;6.93;2.72;;;;;;;;;;5064945;28;20014;-67
2021/10/01 10:24:29;;;;;;;6.25;3.22;;;;;;;;;;5074856;28;20017;-66
2021/10/01 10:26:57;;;;;;;8.02;3.47;;;;;;;;;;5070249;28;20025;-67
2021/10/01 10:29:25;;;;;;;7.18;3.30;;;;;;;;;;5066125;28;20016;-66
2021/10/01 10:31:53;;;;;;;4.82;2.50;;;;;;;;;;5067701;28;20109;-66
2021/10/01 10:34:21;;;;;;;5.43;3.08;;;;;;;;;;5071479;28;20009;-66
2021/10/01 10:36:48;;;;;;;6.50;3.05;;;;;;;;;;5062682;28;20017;-67
2021/10/01 10:39:17;;;;;;;5.88;3.50;;;;;;;;;;5073168;28;20056;-67
2021/10/01 10:41:45;;;;;;;8.98;4.18;;;;;;;;;;5070513;28;20045;-66
2021/10/01 10:44:13;;;;;;;6.90;2.53;;;;;;;;;;5061255;28;20014;-66
2021/10/01 10:46:42;;;;;;;5.78;3.53;;;;;;;;;;5068844;28;20124;-66
2021/10/01 10:52:02;;;;;;;7.35;2.63;;;;;;;;;;5078561;28;20032;-67
2021/10/01 10:54:33;;;;;;;5.13;2.53;;;;;;;;;;5060672;28;20026;-66
2021/10/01 10:57:21;;;;;;;6.20;2.65;;;;;;;;;;5074378;28;20029;-66
2021/10/01 10:59:53;;;;;;;8.98;2.75;;;;;;;;;;5067072;28;20017;-66
2021/10/01 11:02:33;;;;;;;4.63;2.30;;;;;;;;;;5071281;28;20029;-66
2021/10/01 11:05:21;;;;;;;7.10;2.65;;;;;;;;;;5060100;28;20018;-66
2021/10/01 11:07:56;;;;;;;3.45;2.78;;;;;;;;;;5067682;28;20031;-66
2021/10/01 11:10:43;;;;;;;6.97;2.60;;;;;;;;;;5060517;28;20006;-66
2021/10/01 11:13:22;;;;;;;4.47;2.35;;;;;;;;;;5070981;28;20013;-67
2021/10/01 11:18:58;;;;;;;5.38;2.50;;;;;;;;;;5063439;28;20060;-66
2021/10/01 11:21:28;;;;;;;4.88;2.55;;;;;;;;;;5069217;28;20044;-68
2021/10/01 11:24:24;;;;;;;6.35;2.28;;;;;;;;;;5064860;28;20034;-67
2021/10/01 11:26:54;;;;;;;4.93;2.60;;;;;;;;;;5063894;28;20038;-67
2021/10/01 11:29:29;;;;;;;3.72;2.55;;;;;;;;;;5065660;28;20032;-67
2021/10/01 11:32:01;;;;;;;4.78;2.60;;;;;;;;;;5070605;28;20029;-67
2021/10/01 11:34:42;;;;;;;6.00;2.92;;;;;;;;;;5064799;28;20039;-67
2021/10/01 11:37:27;;;;;;;4.60;2.88;;;;;;;;;;5069092;28;20039;-66
2021/10/01 11:39:56;;;;;;;8.77;3.50;;;;;;;;;;5079629;28;20052;-67
2021/10/01 11:42:28;;;;;;;3.65;2.38;;;;;;;;;;5066750;28;20013;-67
2021/10/01 11:44:55;;;;;;;3.58;2.45;;;;;;;;;;5059807;28;20017;-67
2021/10/01 11:47:23;;;;;;;5.53;2.70;;;;;;;;;;5086631;28;21096;-67
2021/10/01 11:49:55;;;;;;;8.07;2.92;;;;;;;;;;5068887;28;20020;-67
2021/10/01 11:52:23;;;;;;;4.75;2.72;;;;;;;;;;5071895;28;20016;-68
2021/10/01 11:54:52;;;;;;;6.05;2.67;;;;;;;;;;5069888;28;20077;-67
2021/10/01 11:57:19;;;;;;;5.07;2.63;;;;;;;;;;5062910;28;20051;-67
2021/10/01 11:59:52;;;;;;;4.40;2.20;;;;;;;;;;5066418;28;20021;-66
2021/10/01 12:02:34;;;;;;;5.20;2.70;;;;;;;;;;5071453;28;20013;-66
2021/10/01 12:05:21;;;;;;;5.50;2.60;;;;;;;;;;5065049;28;20025;-67
2021/10/01 12:07:49;;;;;;;3.25;2.03;;;;;;;;;;5065678;28;20043;-66
2021/10/01 12:10:17;;;;;;;7.85;2.70;;;;;;;;;;5067913;28;20031;-66
2021/10/01 12:13:00;;;;;;;4.65;2.55;;;;;;;;;;5066267;28;20028;-66
2021/10/01 12:15:45;;;;;;;4.55;2.40;;;;;;;;;;5068163;28;20053;-68
2021/10/01 12:18:27;;;;;;;6.20;2.45;;;;;;;;;;5065983;28;20089;-66
2021/10/01 12:20:55;;;;;;;3.58;2.22;;;;;;;;;;5065694;28;20043;-66
2021/10/01 12:23:29;;;;;;;6.28;2.97;;;;;;;;;;5068918;28;20083;-67
2021/10/01 12:25:56;;;;;;;4.70;3.03;;;;;;;;;;5065064;28;20043;-65
2021/10/01 12:28:24;;;;;;;4.82;2.58;;;;;;;;;;5070472;28;20018;-66
2021/10/01 12:31:01;;;;;;;4.63;2.60;;;;;;;;;;5060928;28;20017;-66
2021/10/01 12:33:28;;;;;;;6.25;2.35;;;;;;;;;;5065043;28;20085;-66
2021/10/01 12:35:55;;;;;;;6.38;2.75;;;;;;;;;;5063327;28;20021;-66
2021/10/01 12:38:23;;;;;;;4.68;2.53;;;;;;;;;;5064813;28;20112;-67
2021/10/01 12:41:22;;;;;;;5.30;2.38;;;;;;;;;;5060614;28;20170;-66
2021/10/01 12:44:03;;;;;;;8.75;2.80;;;;;;;;;;5059048;28;20053;-66
2021/10/01 12:46:56;;;;;;;7.75;3.35;;;;;;;;;;5072597;28;20017;-66
2021/10/01 12:49:28;;;;;;;5.88;2.78;;;;;;;;;;5063224;28;20034;-66
2021/10/01 12:52:04;;;;;;;6.00;2.95;;;;;;;;;;5068168;28;20032;-66
2021/10/01 12:54:52;;;;;;;5.38;2.92;;;;;;;;;;5070469;28;20033;-67
2021/10/01 12:57:24;;;;;;;6.45;2.95;;;;;;;;;;5068686;28;20031;-66
2021/10/01 12:59:53;;;;;;;5.15;2.92;;;;;;;;;;5065285;28;20049;-67
2021/10/01 13:02:25;;;;;;;6.30;3.42;;;;;;;;;;5061015;28;20268;-67
2021/10/01 13:04:53;;;;;;;4.75;2.95;;;;;;;;;;5063812;28;20025;-67
2021/10/01 13:07:21;;;;;;;6.65;3.42;;;;;;;;;;5070331;28;20029;-67
2021/10/01 13:09:49;;;;;;;6.30;2.90;;;;;;;;;;5070517;28;20097;-67
2021/10/01 13:12:29;;;;;;;5.38;2.80;;;;;;;;;;5067876;28;20040;-67
2021/10/01 13:15:13;;;;;;;6.70;3.58;;;;;;;;;;5063899;28;20017;-67
2021/10/01 13:17:40;;;;;;;5.70;3.33;;;;;;;;;;5067134;28;20110;-66
2021/10/01 13:20:08;;;;;;;6.32;3.35;;;;;;;;;;5075960;28;20021;-67
2021/10/01 13:23:13;;;;;;;5.80;3.33;;;;;;;;;;5074766;28;20049;-67
2021/10/01 13:25:40;;;;;;;;;;;;;;;;;;5032019;28;20026;-66
2021/10/01 13:28:07;;;;;;;5.78;3.20;;;;;;;;;;5029173;28;19917;-66
2021/10/01 13:30:35;;;;;;;8.15;4.15;;;;;;;;;;5044082;28;20031;-66
2021/10/01 13:33:03;;;;;;;5.22;3.15;;;;;;;;;;5074708;28;20044;-66
2021/10/01 13:35:30;;;;;;;5.30;3.53;;;;;;;;;;5066967;28;20028;-67
2021/10/01 13:37:58;;;;;;;8.00;3.60;;;;;;;;;;5066307;28;20009;-65
2021/10/01 13:40:25;;;;;;;5.45;3.42;;;;;;;;;;5061727;28;20028;-66
2021/10/01 13:42:53;;;;;;;6.13;3.55;;;;;;;;;;5072885;28;20021;-67
2021/10/01 13:45:20;;;;;;;7.03;3.70;;;;;;;;;;5071977;28;20065;-66
2021/10/01 13:47:47;;;;;;;6.47;3.60;;;;;;;;;;5070487;28;20032;-66
2021/10/01 13:50:14;;;;;;;9.25;4.03;;;;;;;;;;5072869;28;20025;-66
2021/10/01 13:52:42;;;;;;;5.93;3.45;;;;;;;;;;5070430;28;20017;-66
2021/10/01 13:55:10;;;;;;;7.07;3.58;;;;;;;;;;5067925;28;20009;-67
2021/10/01 13:57:37;;;;;;;6.70;3.22;;;;;;;;;;5065671;28;20029;-67
2021/10/01 14:00:06;;;;;;;5.53;3.17;;;;;;;;;;5073673;28;20017;-66
2021/10/01 14:02:35;;;;;;;3.95;2.65;;;;;;;;;;5063262;28;20032;-67
2021/10/01 14:05:03;;;;;;;6.07;2.90;;;;;;;;;;5066103;28;20017;-68
2021/10/01 14:07:30;;;;;;;3.88;2.75;;;;;;;;;;5068055;28;20037;-67
2021/10/01 14:10:00;;;;;;;7.93;3.72;;;;;;;;;;5068507;28;20014;-67
2021/10/01 14:12:30;;;;;;;5.10;3.17;;;;;;;;;;5064622;28;20017;-67
2021/10/01 14:14:58;;;;;;;4.13;2.03;;;;;;;;;;5059891;28;20025;-67
2021/10/01 14:17:25;;;;;;;6.50;2.13;;;;;;;;;;5069816;28;20051;-67
2021/10/01 14:19:53;;;;;;;5.22;2.40;;;;;;;;;;5057387;28;20146;-67
2021/10/01 14:22:20;;;;;;;4.70;2.25;;;;;;;;;;5068305;28;20274;-67
2021/10/01 14:24:48;;;;;;;3.33;2.13;;;;;;;;;;5069284;28;20017;-67
2021/10/01 14:27:15;;;;;;;4.40;1.63;;;;;;;;;;5062867;28;20097;-67
2021/10/01 14:29:42;;;;;;;5.38;1.88;;;;;;;;;;5070932;28;20013;-68
2021/10/01 14:32:10;;;;;;;3.78;2.13;;;;;;;;;;5072611;28;20020;-67
2021/10/01 14:34:38;;;;;;;2.88;1.95;;;;;;;;;;5064728;28;20020;-67
2021/10/01 14:37:06;;;;;;;7.20;2.60;;;;;;;;;;5068242;28;20017;-68
2021/10/01 14:39:33;;;;;;;2.88;1.70;;;;;;;;;;5064490;28;20045;-67
2021/10/01 14:42:00;;;;;;;3.97;2.20;;;;;;;;;;5068370;28;20018;-67
2021/10/01 14:44:27;;;;;;;5.70;2.00;;;;;;;;;;5067224;28;20017;-66
2021/10/01 14:46:54;;;;;;;4.70;1.70;;;;;;;;;;5068813;28;20060;-68
2021/10/01 14:49:22;;;;;;;3.65;1.73;;;;;;;;;;5060081;28;20041;-67
2021/10/01 14:51:50;;;;;;;3.55;1.92;;;;;;;;;;5063823;28;20017;-67
2021/10/01 14:54:17;;;;;;;4.28;2.03;;;;;;;;;;5072265;28;20043;-67
2021/10/01 14:56:45;;;;;;;2.97;1.95;;;;;;;;;;5068286;28;20017;-67
2021/10/01 14:59:12;;;;;;;5.15;1.98;;;;;;;;;;5065369;28;20021;-66
2021/10/01 15:01:39;;;;;;;3.80;2.30;;;;;;;;;;5068826;28;20077;-67
2021/10/01 15:04:06;;;;;;;4.15;2.10;;;;;;;;;;5070681;28;20073;-67
2021/10/01 15:06:33;;;;;;;5.95;2.47;;;;;;;;;;5065350;28;20025;-67
2021/10/01 15:09:00;;;;;;;7.22;3.70;;;;;;;;;;5069706;28;20033;-67
2021/10/01 15:11:27;;;;;;;10.57;3.72;;;;;;;;;;5064480;28;20109;-67
2021/10/01 15:13:55;;;;;;;8.27;3.50;;;;;;;;;;5061579;28;20010;-67
2021/10/01 15:16:22;;;;;;;5.95;3.65;;;;;;;;;;5066850;28;20029;-67
2021/10/01 15:18:49;;;;;;;11.90;5.13;;;;;;;;;;5066796;28;20021;-67
2021/10/01 15:21:16;;;;;;;8.10;3.53;;;;;;;;;;5061841;28;20017;-67
2021/10/01 15:23:44;;;;;;;6.70;3.50;;;;;;;;;;5071284;28;20040;-67
2021/10/01 15:26:11;;;;;;;7.25;3.85;;;;;;;;;;5068285;28;20040;-67
2021/10/01 15:28:39;;;;;;;6.22;3.45;;;;;;;;;;5069392;28;20081;-67
2021/10/01 15:31:06;;;;;;;10.40;4.35;;;;;;;;;;5070088;28;20037;-67
2021/10/01 15:33:33;;;;;;;8.80;4.78;;;;;;;;;;5067975;28;20018;-67
2021/10/01 15:36:00;;;;;;;9.43;4.57;;;;;;;;;;5071950;28;20021;-67
2021/10/01 15:38:27;;;;;;;8.60;4.72;;;;;;;;;;5068542;28;20042;-67
2021/10/01 15:40:55;;;;;;;8.18;4.63;;;;;;;;;;5071196;28;20024;-67
2021/10/01 15:43:22;;;;;;;7.30;4.80;;;;;;;;;;5069888;28;20084;-67
2021/10/01 15:45:51;;;;;;;8.57;4.78;;;;;;;;;;5069185;28;20021;-67
2021/10/01 15:48:23;;;;;;;7.25;4.55;;;;;;;;;;5066846;28;20014;-67
2021/10/01 15:50:50;;;;;;;8.13;5.07;;;;;;;;;;5068858;28;20025;-67
2021/10/01 15:53:17;;;;;;;9.00;5.47;;;;;;;;;;5068485;28;20056;-67
2021/10/01 15:55:44;;;;;;;8.40;4.88;;;;;;;;;;5069757;28;20016;-67
2021/10/01 15:58:12;;;;;;;11.05;4.88;;;;;;;;;;5067993;28;20089;-67
2021/10/01 16:00:39;;;;;;;7.68;4.82;;;;;;;;;;5071078;28;20009;-68
2021/10/01 16:03:09;;;;;;;8.55;5.57;;;;;;;;;;5068195;28;20029;-67
2021/10/01 16:05:36;;;;;;;8.50;4.63;;;;;;;;;;5068015;28;20005;-67
2021/10/01 16:08:05;;;;;;;11.68;5.50;;;;;;;;;;5067283;28;20017;-67
2021/10/01 16:10:34;;;;;;;12.63;5.20;;;;;;;;;;5069853;28;20021;-67
2021/10/01 16:13:01;;;;;;;9.80;5.60;;;;;;;;;;5073127;28;20029;-67
2021/10/01 16:15:28;;;;;;;11.25;5.85;;;;;;;;;;5072460;28;20069;-67
2021/10/01 16:17:56;;;;;;;8.85;5.50;;;;;;;;;;5066526;28;20047;-68
2021/10/01 16:20:28;;;;;;;7.18;5.35;;;;;;;;;;5067290;28;20073;-67
2021/10/01 16:22:55;;;;;;;9.32;5.00;;;;;;;;;;5069596;28;20143;-68
2021/10/01 16:25:23;;;;;;;12.20;5.18;;;;;;;;;;5071503;28;20029;-67
2021/10/01 16:27:51;;;;;;;10.82;6.28;;;;;;;;;;5066953;28;20059;-68
2021/10/01 16:30:18;;;;;;;10.70;6.38;;;;;;;;;;5066939;28;20025;-68
2021/10/01 16:32:46;;;;;;;8.48;5.90;;;;;;;;;;5068227;28;20013;-67
2021/10/01 16:35:13;;;;;;;15.55;6.13;;;;;;;;;;5068325;28;20009;-67
2021/10/01 16:37:40;;;;;;;8.45;6.05;;;;;;;;;;5065216;28;20025;-67